Amo, Colorado
Current Conditions -  °F | °C
As of 8:56 AM on Wednesday 26 Nov 2014 (Local Time) from KSHM Reporting Station
Overcast Overcast  
Wind Chill: -8°   Ceiling: 900
Heat Index: -3°   Visibility: 10mi
Dew Point: -5°   Wind: 9mph
Humidity: 89%   Direction: 210°SSW
Pressure: 30.23"   Gusts: NA
Location:  39.0051°N, 104.503°W
Report Text: KSHM 261556Z AUTO 21008KT 10SM OVC009 M03/M04 A3023 RMK AO2 SLP270 T10291045
Loading
Personal Weather Stations






























Interactive Weather Map New forecast layout! Learn more

10-Day Weather Forecast

Advertisements
Track Severe Weather on mobile